Time;durP1;ratioP1;P1;durP2;ratioP2;P2;SDS_P1;SDS_P2;PMS_P1;PMS_P2;Temp;Humidity;BMP_temperature;BMP_pressure;BME280_temperature;BME280_humidity;BME280_pressure;Samples;Min_cycle;Max_cycle;Signal;HPM_P1;HPM_P2
2021/09/05 00:02:28;;;;;;;5.30;3.63;;;22.80;46.30;;;;;;21051084;27;81054;-70
2021/09/05 00:12:30;;;;;;;6.05;3.65;;;22.70;47.20;;;;;;21050317;27;80541;-67
2021/09/05 00:22:34;;;;;;;8.73;4.15;;;22.50;47.60;;;;;;21050146;27;80624;-68
2021/09/05 00:32:37;;;;;;;9.95;4.75;;;22.40;48.40;;;;;;21050157;27;81346;-67
2021/09/05 00:42:39;;;;;;;7.88;4.70;;;22.40;48.20;;;;;;21032276;27;81073;-67
2021/09/05 00:52:41;;;;;;;5.43;4.10;;;22.30;48.40;;;;;;21064346;27;81653;-70
2021/09/05 01:02:44;;;;;;;9.98;4.88;;;22.30;48.40;;;;;;21044130;27;80827;-69
2021/09/05 01:12:47;;;;;;;9.48;5.03;;;22.10;49.40;;;;;;21044176;27;81687;-68
2021/09/05 01:22:52;;;;;;;9.57;4.13;;;22.10;49.50;;;;;;21060429;27;80801;-68
2021/09/05 01:32:55;;;;;;;10.77;5.00;;;22.20;49.80;;;;;;21061401;27;80862;-67
2021/09/05 01:43:02;;;;;;;7.90;5.28;;;22.10;53.40;;;;;;21060822;27;81940;-70
2021/09/05 01:53:06;;;;;;;8.55;5.15;;;22.00;53.30;;;;;;21060382;27;82118;-68
2021/09/05 02:03:10;;;;;;;9.27;5.07;;;21.90;53.40;;;;;;21057090;27;81679;-68
2021/09/05 02:13:15;;;;;;;16.73;9.50;;;21.80;53.40;;;;;;21040417;27;81208;-70
2021/09/05 02:23:20;;;;;;;10.38;5.70;;;21.60;53.40;;;;;;21057514;27;80884;-69
2021/09/05 02:33:23;;;;;;;8.38;4.75;;;21.40;53.10;;;;;;21055772;27;80686;-69
2021/09/05 02:43:24;;;;;;;;;;;21.30;53.70;;;;;;21038487;27;80755;-66
2021/09/05 02:53:28;;;;;;;7.63;4.47;;;21.20;54.00;;;;;;21059430;27;80732;-69
2021/09/05 03:03:30;;;;;;;10.98;4.43;;;21.10;53.90;;;;;;21036636;27;80076;-69
2021/09/05 03:13:34;;;;;;;7.75;4.55;;;21.00;54.50;;;;;;21053224;27;80928;-69
2021/09/05 03:23:38;;;;;;;13.88;5.30;;;20.90;55.10;;;;;;21053404;27;80654;-69
2021/09/05 03:33:40;;;;;;;8.15;4.88;;;20.80;55.20;;;;;;21054007;27;81874;-70
2021/09/05 03:43:43;;;;;;;7.65;5.05;;;20.70;56.50;;;;;;21052709;27;80432;-68
2021/09/05 03:53:47;;;;;;;7.57;5.28;;;20.50;56.20;;;;;;21051033;27;80763;-69
2021/09/05 04:03:51;;;;;;;7.05;5.18;;;20.40;56.70;;;;;;21032635;27;80507;-69
2021/09/05 04:13:54;;;;;;;9.25;5.05;;;20.40;57.10;;;;;;21032138;27;80481;-68
2021/09/05 04:23:56;;;;;;;7.85;4.53;;;20.40;57.00;;;;;;21030484;27;80781;-68
2021/09/05 04:34:15;;;;;;;8.13;5.00;;;20.20;57.60;;;;;;21048317;27;80775;-68
2021/09/05 04:44:40;;;;;;;6.72;4.82;;;20.20;57.70;;;;;;21047843;27;82198;-66
2021/09/05 04:55:01;;;;;;;5.55;4.35;;;20.30;57.90;;;;;;21048876;27;83121;-68
2021/09/05 05:05:17;;;;;;;8.18;4.40;;;20.20;58.20;;;;;;21047498;27;80427;-68
2021/09/05 05:15:23;;;;;;;6.45;4.80;;;20.30;58.20;;;;;;21049080;27;80969;-68
2021/09/05 05:25:28;;;;;;;8.38;5.25;;;20.30;58.20;;;;;;21048651;27;80694;-68
2021/09/05 05:35:37;;;;;;;8.77;6.25;;;20.30;59.40;;;;;;21057603;27;80468;-67
2021/09/05 05:45:45;;;;;;;6.93;4.72;;;20.30;60.20;;;;;;21061456;27;79881;-68
2021/09/05 05:55:52;;;;;;;7.88;4.68;;;20.30;58.20;;;;;;21060812;27;80776;-68
2021/09/05 06:05:58;;;;;;;15.55;6.32;;;20.30;57.90;;;;;;21060326;27;81080;-68
2021/09/05 06:16:01;;;;;;;8.18;5.05;;;20.40;58.40;;;;;;21059870;27;80774;-67
2021/09/05 06:26:06;;;;;;;8.27;4.75;;;20.50;57.20;;;;;;21060405;27;81246;-68
2021/09/05 06:36:10;;;;;;;9.73;4.88;;;20.60;56.20;;;;;;21059250;27;80845;-70
2021/09/05 06:46:13;;;;;;;6.60;4.78;;;20.80;56.00;;;;;;21040111;27;80898;-68
2021/09/05 06:56:20;;;;;;;6.00;4.30;;;21.10;56.70;;;;;;21058223;27;80128;-68
2021/09/05 07:06:25;;;;;;;10.13;3.78;;;21.40;55.30;;;;;;21039338;27;80915;-68
2021/09/05 07:16:29;;;;;;;11.02;4.18;;;21.70;54.40;;;;;;21038598;27;82222;-68
2021/09/05 07:26:33;;;;;;;9.25;3.72;;;22.00;54.90;;;;;;21055772;27;80862;-71
2021/09/05 07:36:36;;;;;;;6.72;3.97;;;22.30;55.00;;;;;;21036376;27;80774;-65
2021/09/05 07:46:40;;;;;;;9.05;4.65;;;22.60;55.00;;;;;;21054251;27;80930;-68
2021/09/05 07:56:43;;;;;;;7.18;4.95;;;22.90;54.90;;;;;;21053262;27;82326;-65
2021/09/05 08:06:47;;;;;;;9.43;4.82;;;23.30;55.10;;;;;;21053451;27;82233;-75
2021/09/05 08:16:50;;;;;;;7.63;5.10;;;23.70;54.90;;;;;;21052200;27;80833;-67
2021/09/05 08:26:55;;;;;;;13.07;6.40;;;24.20;54.90;;;;;;21048478;27;81084;-67
2021/09/05 08:36:58;;;;;;;10.90;5.28;;;24.50;54.80;;;;;;21050165;27;80800;-67
2021/09/05 08:47:01;;;;;;;9.40;5.70;;;24.80;54.60;;;;;;21050751;27;82246;-67
2021/09/05 08:57:05;;;;;;;10.88;5.20;;;25.20;54.00;;;;;;21049857;27;80632;-68
2021/09/05 09:07:12;;;;;;;10.73;4.45;;;25.40;53.70;;;;;;21037307;27;80721;-67
2021/09/05 09:17:17;;;;;;;16.20;4.72;;;25.80;53.60;;;;;;21046856;27;80397;-69
2021/09/05 09:27:25;;;;;;;10.05;4.65;;;26.40;52.30;;;;;;21063387;27;80548;-69
2021/09/05 09:37:29;;;;;;;8.70;4.22;;;27.20;50.50;;;;;;21045053;27;80938;-69
2021/09/05 09:47:42;;;;;;;11.32;4.03;;;27.90;49.50;;;;;;21044145;27;82129;-68
2021/09/05 09:57:48;;;;;;;8.88;4.03;;;28.90;46.80;;;;;;21043565;27;80743;-68
2021/09/05 10:07:52;;;;;;;7.18;4.10;;;30.20;44.20;;;;;;21060476;27;81986;-68
2021/09/05 10:17:58;;;;;;;7.85;3.67;;;31.80;41.10;;;;;;21042082;27;80835;-67
2021/09/05 10:28:02;;;;;;;10.07;4.03;;;32.70;38.80;;;;;;21058002;27;81801;-68
2021/09/05 10:38:11;;;;;;;5.88;3.40;;;34.30;36.30;;;;;;21040673;27;81908;-68
2021/09/05 10:48:29;;;;;;;11.50;4.45;;;36.20;33.30;;;;;;21058104;27;81914;-68
2021/09/05 10:59:05;;;;;;;9.63;4.43;;;38.40;30.80;;;;;;21056648;27;81142;-68
2021/09/05 11:09:20;;;;;;;9.82;4.65;;;41.00;27.60;;;;;;21055736;27;80869;-61
2021/09/05 11:19:24;;;;;;;7.85;4.40;;;43.50;24.90;;;;;;21055237;27;79980;-64
2021/09/05 11:29:28;;;;;;;6.63;3.72;;;44.00;24.20;;;;;;21053855;27;81821;-63
2021/09/05 11:39:32;;;;;;;11.07;3.83;;;44.40;23.10;;;;;;21035677;27;79960;-63
2021/09/05 11:49:46;;;;;;;9.18;3.70;;;45.00;22.60;;;;;;21052373;27;80673;-62
2021/09/05 11:59:54;;;;;;;6.75;3.85;;;46.60;21.50;;;;;;21052604;27;80840;-63
2021/09/05 12:10:05;;;;;;;9.10;3.78;;;48.00;20.20;;;;;;21034604;27;80833;-61
2021/09/05 12:20:09;;;;;;;6.53;3.42;;;46.80;20.60;;;;;;21051631;27;81935;-61
2021/09/05 12:30:51;;;;;;;5.57;3.90;;;44.60;22.50;;;;;;21042985;27;80514;-61
2021/09/05 12:40:54;;;;;;;4.78;3.28;;;40.60;25.80;;;;;;21025087;27;82708;-62
2021/09/05 12:51:02;;;;;;;5.75;3.28;;;41.90;24.20;;;;;;21062019;27;80763;-63
2021/09/05 13:01:04;;;;;;;7.15;4.32;;;45.00;21.70;;;;;;21064995;27;80416;-62
2021/09/05 13:11:09;;;;;;;6.15;3.65;;;44.20;22.40;;;;;;21047170;27;80316;-62
2021/09/05 13:21:14;;;;;;;11.68;3.83;;;41.60;23.80;;;;;;21063900;27;80867;-62
2021/09/05 13:31:18;;;;;;;5.28;3.17;;;40.60;25.00;;;;;;21063873;27;81856;-63
2021/09/05 13:41:20;;;;;;;4.55;3.53;;;42.00;23.00;;;;;;21032250;27;80837;-63
2021/09/05 13:51:23;;;;;;;5.50;3.65;;;42.90;21.90;;;;;;20957867;27;79915;-63
2021/09/05 14:01:26;;;;;;;7.15;3.20;;;47.80;18.30;;;;;;21037442;27;81867;-62
2021/09/05 14:11:28;;;;;;;8.05;3.95;;;46.90;18.60;;;;;;21010247;27;80859;-61
2021/09/05 14:21:31;;;;;;;6.57;4.10;;;47.00;18.80;;;;;;20975036;27;80525;-62
2021/09/05 15:02:24;;;;;;;7.07;4.07;;;46.30;17.60;;;;;;20972020;27;80014;-72
2021/09/05 15:12:28;;;;;;;5.80;3.70;;;51.60;14.50;;;;;;20971827;27;80678;-69
2021/09/05 15:22:34;;;;;;;5.32;3.20;;;53.40;13.70;;;;;;20982533;27;80391;-70
2021/09/05 15:53:19;;;;;;;5.63;2.97;;;44.90;16.80;;;;;;21001960;27;80816;-67
2021/09/05 16:03:47;;;;;;;3.92;3.15;;;42.70;18.10;;;;;;20999188;27;81100;-67
2021/09/05 16:24:05;;;;;;;4.68;3.55;;;41.60;19.30;;;;;;21044506;27;82113;-67
2021/09/05 16:34:15;;;;;;;4.03;2.30;;;40.70;20.80;;;;;;21046424;27;80391;-68
2021/09/05 16:44:17;;;;;;;3.75;2.38;;;39.90;19.80;;;;;;21045871;27;81817;-68
2021/09/05 16:54:19;;;;;;;4.03;2.00;;;37.70;21.60;;;;;;21037663;27;80382;-67
2021/09/05 17:04:20;;;;;;;2.47;1.90;;;36.30;20.40;;;;;;21046050;27;80021;-67
2021/09/05 17:14:23;;;;;;;3.95;1.92;;;35.40;22.40;;;;;;21041333;27;80774;-68
2021/09/05 17:24:27;;;;;;;2.75;1.77;;;34.80;21.50;;;;;;21044996;27;80763;-67
2021/09/05 17:34:30;;;;;;;3.90;2.30;;;34.30;23.30;;;;;;21061082;27;81646;-70
2021/09/05 17:44:31;;;;;;;4.05;1.73;;;34.30;25.50;;;;;;21058676;27;81582;-67
2021/09/05 17:54:34;;;;;;;4.72;2.50;;;33.70;24.50;;;;;;21056101;27;80594;-69
2021/09/05 18:04:36;;;;;;;4.00;2.53;;;33.00;28.00;;;;;;21013170;27;81145;-68
2021/09/05 18:14:38;;;;;;;2.45;2.03;;;32.40;28.70;;;;;;20960479;27;82368;-67
2021/09/05 18:24:40;;;;;;;6.53;2.85;;;31.90;28.20;;;;;;20976460;27;81806;-68
2021/09/05 18:34:41;;;;;;;6.82;2.28;;;31.50;30.80;;;;;;20987862;27;81407;-68
2021/09/05 18:44:43;;;;;;;7.47;2.50;;;31.10;32.00;;;;;;20974779;27;80075;-67
2021/09/05 18:54:45;;;;;;;6.38;2.97;;;30.70;31.70;;;;;;20956256;27;80534;-67
2021/09/05 19:04:50;;;;;;;8.27;3.60;;;30.40;31.60;;;;;;20964206;27;81705;-69
2021/09/05 19:14:51;;;;;;;7.60;3.97;;;30.00;32.60;;;;;;20969358;27;80625;-70
2021/09/05 19:24:53;;;;;;;8.73;3.97;;;29.60;33.40;;;;;;20963909;27;80554;-69
2021/09/05 19:34:54;;;;;;;14.73;5.40;;;29.30;34.00;;;;;;20969072;27;80730;-69
2021/09/05 19:44:57;;;;;;;11.15;4.93;;;29.20;35.00;;;;;;20969138;27;81705;-67
2021/09/05 19:54:58;;;;;;;10.05;5.85;;;28.90;35.20;;;;;;20967601;27;80071;-69
2021/09/05 20:05:00;;;;;;;11.88;6.25;;;28.70;35.90;;;;;;20979070;27;80710;-69
2021/09/05 20:15:02;;;;;;;15.05;7.13;;;28.50;36.50;;;;;;20968352;27;81889;-71
2021/09/05 20:25:07;;;;;;;18.88;7.93;;;28.30;37.60;;;;;;20967547;27;80790;-70
2021/09/05 20:35:09;;;;;;;21.98;9.02;;;28.10;38.60;;;;;;20948777;27;80381;-70
2021/09/05 20:45:11;;;;;;;18.25;8.57;;;27.90;39.30;;;;;;20966483;27;80766;-71
2021/09/05 20:55:13;;;;;;;35.10;7.78;;;27.70;39.90;;;;;;20965408;27;80048;-71
2021/09/05 21:05:15;;;;;;;9.82;4.05;;;27.50;38.30;;;;;;20956294;27;80779;-70
2021/09/05 21:15:16;;;;;;;14.15;4.38;;;27.40;37.60;;;;;;20979616;27;81791;-72
2021/09/05 21:25:18;;;;;;;7.15;3.75;;;27.20;37.60;;;;;;20960244;27;80774;-70
2021/09/05 21:35:20;;;;;;;6.75;3.35;;;27.00;37.90;;;;;;20959613;27;80687;-70
2021/09/05 21:45:22;;;;;;;9.73;2.70;;;26.70;39.00;;;;;;20977241;27;81936;-70
2021/09/05 21:55:25;;;;;;;7.60;3.40;;;26.50;39.60;;;;;;21012685;27;80882;-70
2021/09/05 22:05:27;;;;;;;8.18;2.80;;;26.30;40.10;;;;;;21029417;27;80076;-70
2021/09/05 22:15:29;;;;;;;6.72;2.97;;;26.10;40.80;;;;;;20956812;27;81838;-69
2021/09/05 22:25:31;;;;;;;7.25;2.95;;;26.00;41.10;;;;;;20974680;27;80747;-68
2021/09/05 22:35:33;;;;;;;5.70;3.10;;;25.70;41.70;;;;;;20974194;27;81309;-68
2021/09/05 22:45:35;;;;;;;9.73;3.10;;;25.50;42.30;;;;;;21003603;27;81787;-71
2021/09/05 22:55:38;;;;;;;8.43;2.65;;;25.40;42.70;;;;;;20977146;27;80849;-70
2021/09/05 23:05:39;;;;;;;6.78;2.90;;;25.20;43.10;;;;;;21028653;27;80803;-70
2021/09/05 23:15:40;;;;;;;5.43;3.05;;;25.00;43.40;;;;;;20980538;27;80736;-70
2021/09/05 23:25:42;;;;;;;8.52;3.25;;;25.10;43.60;;;;;;20970130;27;80793;-69
2021/09/05 23:35:45;;;;;;;5.78;2.75;;;24.90;44.10;;;;;;20951386;27;82062;-68
2021/09/05 23:45:46;;;;;;;5.07;2.63;;;24.80;44.40;;;;;;20969156;27;81539;-68
2021/09/05 23:55:48;;;;;;;5.68;2.40;;;24.80;44.80;;;;;;20968374;27;80651;-70
